createdAt,value
2022-10-06T00:00:58.925Z,67.83
2022-10-06T00:01:58.954Z,68.68
2022-10-06T00:02:58.955Z,68.99
2022-10-06T00:03:58.866Z,68.79
2022-10-06T00:04:58.852Z,67.76
2022-10-06T00:05:58.856Z,64.97
2022-10-06T00:06:58.859Z,64.17
2022-10-06T00:07:58.833Z,64.25
2022-10-06T00:08:58.815Z,64.65
2022-10-06T00:09:58.813Z,63.60
2022-10-06T00:10:58.792Z,64.76
2022-10-06T00:11:58.789Z,65.99
2022-10-06T00:12:58.767Z,65.37
2022-10-06T00:13:58.809Z,65.27
2022-10-06T00:14:58.742Z,66.30
2022-10-06T00:15:58.802Z,65.68
2022-10-06T00:16:58.734Z,66.09
2022-10-06T00:17:58.710Z,66.06
2022-10-06T00:18:58.701Z,67.83
2022-10-06T00:19:58.704Z,68.35
2022-10-06T00:20:58.696Z,68.45
2022-10-06T00:21:58.681Z,68.65
2022-10-06T00:22:58.680Z,70.09
2022-10-06T00:23:58.650Z,68.24
2022-10-06T00:24:58.637Z,68.24
2022-10-06T00:25:58.682Z,68.14
2022-10-06T00:26:58.616Z,69.51
2022-10-06T00:27:58.657Z,68.07
2022-10-06T00:28:58.600Z,67.32
2022-10-06T00:29:58.582Z,65.78
2022-10-06T00:30:58.585Z,66.09
2022-10-06T00:31:58.777Z,67.02
2022-10-06T00:32:58.550Z,67.73
2022-10-06T00:33:58.551Z,67.83
2022-10-06T00:34:58.528Z,65.78
2022-10-06T00:35:58.531Z,66.09
2022-10-06T00:36:58.518Z,65.68
2022-10-06T00:37:58.505Z,68.27
2022-10-06T00:38:58.506Z,65.81
2022-10-06T00:39:58.469Z,67.14
2022-10-06T00:40:58.471Z,66.81
2022-10-06T00:41:58.658Z,67.97
2022-10-06T00:42:58.446Z,65.27
2022-10-06T00:43:58.489Z,62.81
2022-10-06T00:44:58.431Z,64.42
2022-10-06T00:45:58.464Z,65.24
2022-10-06T00:46:58.390Z,66.30
2022-10-06T00:47:58.384Z,65.48
2022-10-06T00:48:58.381Z,65.17
2022-10-06T00:49:58.422Z,64.76
2022-10-06T00:50:58.361Z,65.07
2022-10-06T00:51:58.347Z,65.78
2022-10-06T00:52:58.326Z,66.09
2022-10-06T00:53:58.317Z,66.53
2022-10-06T00:54:58.330Z,66.22
2022-10-06T00:55:58.329Z,67.35
2022-10-06T00:56:58.282Z,67.46
2022-10-06T00:57:58.273Z,67.86
2022-10-06T00:58:58.262Z,67.86
2022-10-06T00:59:58.272Z,66.33
2022-10-06T01:00:58.241Z,67.86
2022-10-06T01:01:58.297Z,67.14
2022-10-06T01:02:58.287Z,67.49
2022-10-06T01:03:58.202Z,66.25
2022-10-06T01:04:58.210Z,68.07
2022-10-06T01:05:58.218Z,67.25
2022-10-06T01:06:58.178Z,67.66
2022-10-06T01:07:58.197Z,68.48
2022-10-06T01:08:58.151Z,67.59
2022-10-06T01:09:58.154Z,67.90
2022-10-06T01:10:58.160Z,67.86
2022-10-06T01:11:58.120Z,68.10
2022-10-06T01:12:58.106Z,67.79
2022-10-06T01:13:58.118Z,68.00
2022-10-06T01:14:58.115Z,67.59
2022-10-06T01:15:58.209Z,67.69
2022-10-06T01:16:58.077Z,67.69
2022-10-06T01:17:58.052Z,67.97
2022-10-06T01:18:58.045Z,68.10
2022-10-06T01:19:58.101Z,67.38
2022-10-06T01:20:58.019Z,65.84
2022-10-06T01:21:58.010Z,65.30
2022-10-06T01:22:58.012Z,66.53
2022-10-06T01:23:57.986Z,67.35
2022-10-06T01:24:57.975Z,67.35
2022-10-06T01:25:58.027Z,66.63
2022-10-06T01:26:57.977Z,68.10
2022-10-06T01:27:58.038Z,68.38
2022-10-06T01:28:58.013Z,68.51
2022-10-06T01:29:57.921Z,67.76
2022-10-06T01:30:57.943Z,67.05
2022-10-06T01:31:57.931Z,68.72
2022-10-06T01:32:57.890Z,69.02
2022-10-06T01:33:57.893Z,69.13
2022-10-06T01:34:57.878Z,68.92
2022-10-06T01:35:57.856Z,69.43
2022-10-06T01:36:57.845Z,66.56
2022-10-06T01:37:57.844Z,66.74
2022-10-06T01:38:58.117Z,67.56
2022-10-06T01:39:57.811Z,68.51
2022-10-06T01:40:57.799Z,68.62
2022-10-06T01:41:57.788Z,68.30
2022-10-06T01:42:57.922Z,67.59
2022-10-06T01:43:57.771Z,67.59
2022-10-06T01:44:57.779Z,67.05
2022-10-06T01:45:57.827Z,68.62
2022-10-06T01:46:57.734Z,67.69
2022-10-06T01:47:57.736Z,67.38
2022-10-06T01:48:57.712Z,68.30
2022-10-06T01:49:57.703Z,68.51
2022-10-06T01:50:57.697Z,68.85
2022-10-06T01:51:57.680Z,69.06
2022-10-06T01:52:57.674Z,68.10
2022-10-06T01:53:57.677Z,69.16
2022-10-06T01:54:57.650Z,68.44
2022-10-06T01:55:57.637Z,69.13
2022-10-06T01:56:57.749Z,67.83
2022-10-06T01:57:57.626Z,67.83
2022-10-06T01:58:57.634Z,68.44
2022-10-06T01:59:57.598Z,67.72
2022-10-06T02:00:57.596Z,66.05
2022-10-06T02:01:57.665Z,66.25
2022-10-06T02:02:57.617Z,65.74
2022-10-06T02:03:57.587Z,65.20
2022-10-06T02:04:57.547Z,67.38
2022-10-06T02:05:57.573Z,66.36
2022-10-06T02:06:57.632Z,68.21
2022-10-06T02:07:57.512Z,67.38
2022-10-06T02:08:57.557Z,67.38
2022-10-06T02:09:57.487Z,65.74
2022-10-06T02:10:57.478Z,68.00
2022-10-06T02:11:57.467Z,66.05
2022-10-06T02:12:57.469Z,66.87
2022-10-06T02:13:57.452Z,65.95
2022-10-06T02:14:57.484Z,66.36
2022-10-06T02:15:57.537Z,68.21
2022-10-06T02:16:57.413Z,68.51
2022-10-06T02:17:57.401Z,68.62
2022-10-06T02:18:57.400Z,68.30
2022-10-06T02:19:57.374Z,69.06
2022-10-06T02:20:57.425Z,68.96
2022-10-06T02:21:57.363Z,69.67
2022-10-06T02:22:57.345Z,70.08
2022-10-06T02:23:57.341Z,69.67
2022-10-06T02:24:57.322Z,69.67
2022-10-06T02:25:57.311Z,69.98
2022-10-06T02:26:57.330Z,69.19
2022-10-06T02:27:57.372Z,69.88
2022-10-06T02:28:57.297Z,70.73
2022-10-06T02:29:57.270Z,71.86
2022-10-06T02:30:57.361Z,71.25
2022-10-06T02:31:57.247Z,70.42
2022-10-06T02:32:57.237Z,71.01
2022-10-06T02:33:57.226Z,71.14
2022-10-06T02:34:57.325Z,70.73
2022-10-06T02:35:57.203Z,70.22
2022-10-06T02:36:57.193Z,69.98
2022-10-06T02:37:57.183Z,70.60
2022-10-06T02:38:57.188Z,71.04
2022-10-06T02:39:57.159Z,70.08
2022-10-06T02:40:57.167Z,70.32
2022-10-06T02:41:57.135Z,70.32
2022-10-06T02:42:57.129Z,71.11
2022-10-06T02:43:57.113Z,71.14
2022-10-06T02:44:57.112Z,69.26
2022-10-06T02:45:57.149Z,68.54
2022-10-06T02:46:57.142Z,68.96
2022-10-06T02:47:57.073Z,69.16
2022-10-06T02:48:57.109Z,69.78
2022-10-06T02:49:57.050Z,68.85
2022-10-06T02:50:57.046Z,69.06
2022-10-06T02:51:57.309Z,68.96
2022-10-06T02:52:57.027Z,69.16
2022-10-06T02:53:57.007Z,69.06
2022-10-06T02:54:56.996Z,70.50
2022-10-06T02:55:56.984Z,70.50
2022-10-06T02:56:57.032Z,69.88
2022-10-06T02:57:56.963Z,68.16
2022-10-06T02:58:56.971Z,68.85
2022-10-06T02:59:56.939Z,69.33
2022-10-06T03:00:56.928Z,69.16
2022-10-06T03:01:57.091Z,68.72
2022-10-06T03:02:57.104Z,67.72
2022-10-06T03:03:56.920Z,68.03
2022-10-06T03:04:56.914Z,67.72
2022-10-06T03:05:56.893Z,68.65
2022-10-06T03:06:56.890Z,69.57
2022-10-06T03:07:56.856Z,69.06
2022-10-06T03:08:56.923Z,69.57
2022-10-06T03:09:56.832Z,68.96
2022-10-06T03:10:56.898Z,69.78
2022-10-06T03:11:56.811Z,69.47
2022-10-06T03:12:56.804Z,68.96
2022-10-06T03:13:56.813Z,69.16
2022-10-06T03:14:56.789Z,68.54
2022-10-06T03:15:56.861Z,68.54
2022-10-06T03:16:56.761Z,68.75
2022-10-06T03:17:56.744Z,68.54
2022-10-06T03:18:56.760Z,67.83
2022-10-06T03:19:56.739Z,69.16
2022-10-06T03:20:56.715Z,68.65
2022-10-06T03:21:56.725Z,68.65
2022-10-06T03:22:56.690Z,68.13
2022-10-06T03:23:56.679Z,69.16
2022-10-06T03:24:56.686Z,69.67
2022-10-06T03:25:56.671Z,69.70
2022-10-06T03:26:56.655Z,69.70
2022-10-06T03:27:56.703Z,70.29
2022-10-06T03:28:56.637Z,70.60
2022-10-06T03:29:56.619Z,70.63
2022-10-06T03:30:56.641Z,70.01
2022-10-06T03:31:56.608Z,70.12
2022-10-06T03:32:56.613Z,70.63
2022-10-06T03:33:56.573Z,70.94
2022-10-06T03:34:56.582Z,70.15
2022-10-06T03:35:56.550Z,70.15
2022-10-06T03:36:56.540Z,70.22
2022-10-06T03:37:56.542Z,71.17
2022-10-06T03:38:56.585Z,72.10
2022-10-06T03:39:56.509Z,72.00
2022-10-06T03:40:56.508Z,71.28
2022-10-06T03:41:56.486Z,71.28
2022-10-06T03:42:56.479Z,71.14
2022-10-06T03:43:56.573Z,71.76
2022-10-06T03:44:56.460Z,71.35
2022-10-06T03:45:56.440Z,70.84
2022-10-06T03:46:56.502Z,71.66
2022-10-06T03:47:56.421Z,71.28
2022-10-06T03:48:56.416Z,71.04
2022-10-06T03:49:56.411Z,71.25
2022-10-06T03:50:56.423Z,71.35
2022-10-06T03:51:56.394Z,72.17
2022-10-06T03:52:56.474Z,71.08
2022-10-06T03:53:56.354Z,71.48
2022-10-06T03:54:56.342Z,71.14
2022-10-06T03:55:56.332Z,71.04
2022-10-06T03:56:56.326Z,71.25
2022-10-06T03:57:56.314Z,71.45
2022-10-06T03:58:56.310Z,71.17
2022-10-06T03:59:56.289Z,71.28
2022-10-06T04:00:56.349Z,71.79
2022-10-06T04:01:56.356Z,71.79
2022-10-06T04:02:56.313Z,72.20
2022-10-06T04:03:56.248Z,70.94
2022-10-06T04:04:56.240Z,71.28
2022-10-06T04:05:56.227Z,71.48
2022-10-06T04:06:56.235Z,71.17
2022-10-06T04:07:56.214Z,70.46
2022-10-06T04:08:56.245Z,70.25
2022-10-06T04:09:56.182Z,72.00
2022-10-06T04:10:56.168Z,72.82
2022-10-06T04:11:56.170Z,73.44
2022-10-06T04:12:56.151Z,73.54
2022-10-06T04:13:56.142Z,72.72
2022-10-06T04:14:59.987Z,73.36
2022-10-06T04:15:56.174Z,72.51
2022-10-06T04:16:56.104Z,71.21
2022-10-06T04:17:56.105Z,71.17
2022-10-06T04:18:56.088Z,72.65
2022-10-06T04:19:56.137Z,72.03
2022-10-06T04:20:56.062Z,71.83
2022-10-06T04:21:56.050Z,72.10
2022-10-06T04:22:56.135Z,73.57
2022-10-06T04:23:56.042Z,71.28
2022-10-06T04:24:56.028Z,71.48
2022-10-06T04:25:56.158Z,71.28
2022-10-06T04:26:56.086Z,72.10
2022-10-06T04:27:56.055Z,71.69
2022-10-06T04:28:55.976Z,71.69
2022-10-06T04:29:55.994Z,72.20
2022-10-06T04:30:55.956Z,72.20
2022-10-06T04:31:55.960Z,71.72
2022-10-06T04:32:55.929Z,71.69
2022-10-06T04:33:55.931Z,71.48
2022-10-06T04:34:55.997Z,71.79
2022-10-06T04:35:55.908Z,72.00
2022-10-06T04:36:55.887Z,70.32
2022-10-06T04:37:55.889Z,69.47
2022-10-06T04:38:55.889Z,70.70
2022-10-06T04:39:55.857Z,70.94
2022-10-06T04:40:55.909Z,71.66
2022-10-06T04:41:55.868Z,71.35
2022-10-06T04:42:55.822Z,71.25
2022-10-06T04:43:55.825Z,71.35
2022-10-06T04:44:55.800Z,71.55
2022-10-06T04:45:55.894Z,71.14
2022-10-06T04:46:55.887Z,71.86
2022-10-06T04:47:55.770Z,71.55
2022-10-06T04:48:55.755Z,72.06
2022-10-06T04:49:55.748Z,71.76
2022-10-06T04:50:55.736Z,71.97
2022-10-06T04:51:55.738Z,71.38
2022-10-06T04:52:55.732Z,71.86
2022-10-06T04:53:55.704Z,71.69
2022-10-06T04:54:55.719Z,72.41
2022-10-06T04:55:55.681Z,74.77
2022-10-06T04:56:55.672Z,74.80
2022-10-06T04:57:55.675Z,72.92
2022-10-06T04:58:55.654Z,72.72
2022-10-06T04:59:55.639Z,72.92
2022-10-06T05:00:55.659Z,73.98
2022-10-06T05:01:55.658Z,73.98
2022-10-06T05:02:55.617Z,73.23
2022-10-06T05:03:55.613Z,72.72
2022-10-06T05:04:55.657Z,72.61
2022-10-06T05:05:55.578Z,72.92
2022-10-06T05:06:55.589Z,72.82
2022-10-06T05:07:55.554Z,72.51
2022-10-06T05:08:55.545Z,72.75
2022-10-06T05:09:55.529Z,73.06
2022-10-06T05:10:55.544Z,71.89
2022-10-06T05:11:55.594Z,73.44
2022-10-06T05:12:55.520Z,71.97
2022-10-06T05:13:55.492Z,72.72
2022-10-06T05:14:55.478Z,72.72
2022-10-06T05:15:55.476Z,72.41
2022-10-06T05:16:55.456Z,73.33
2022-10-06T05:17:55.497Z,73.33
2022-10-06T05:18:55.433Z,72.31
2022-10-06T05:19:55.423Z,72.68
2022-10-06T05:20:55.412Z,73.02
2022-10-06T05:21:55.413Z,72.92
2022-10-06T05:22:55.391Z,73.23
2022-10-06T05:23:55.417Z,73.74
2022-10-06T05:24:55.365Z,73.74
2022-10-06T05:25:55.358Z,73.44
2022-10-06T05:26:59.510Z,73.33
2022-10-06T05:27:56.593Z,72.82
2022-10-06T05:28:55.324Z,74.46
2022-10-06T05:29:55.377Z,74.77
2022-10-06T05:30:55.302Z,75.18
2022-10-06T05:31:55.340Z,74.67
2022-10-06T05:32:55.281Z,74.80
2022-10-06T05:33:55.283Z,74.60
2022-10-06T05:34:55.261Z,75.38
2022-10-06T05:35:55.254Z,75.32
2022-10-06T05:36:55.241Z,75.32
2022-10-06T05:37:55.436Z,77.06
2022-10-06T05:38:55.234Z,75.42
2022-10-06T05:39:55.206Z,74.80
2022-10-06T05:40:55.202Z,74.91
2022-10-06T05:41:55.190Z,76.55
2022-10-06T05:42:55.197Z,76.97
2022-10-06T05:43:55.165Z,75.73
2022-10-06T05:44:55.164Z,75.32
2022-10-06T05:45:55.199Z,77.06
2022-10-06T05:46:55.130Z,77.68
2022-10-06T05:47:55.129Z,77.78
2022-10-06T05:48:55.105Z,76.86
2022-10-06T05:49:55.099Z,76.72
2022-10-06T05:50:55.096Z,77.17
2022-10-06T05:51:55.085Z,77.13
2022-10-06T05:52:55.129Z,77.27
2022-10-06T05:53:55.053Z,77.78
2022-10-06T05:54:55.048Z,77.68
2022-10-06T05:55:55.037Z,77.99
2022-10-06T05:56:55.035Z,78.20
2022-10-06T05:57:55.011Z,77.78
2022-10-06T05:58:55.069Z,77.99
2022-10-06T05:59:54.987Z,77.37
2022-10-06T06:00:54.975Z,78.09
2022-10-06T06:01:55.071Z,76.65
2022-10-06T06:02:55.037Z,76.65
2022-10-06T06:03:54.956Z,78.71
2022-10-06T06:04:54.989Z,78.50
2022-10-06T06:05:54.926Z,77.31
2022-10-06T06:06:54.914Z,77.62
2022-10-06T06:07:54.905Z,78.64
2022-10-06T06:08:54.890Z,78.44
2022-10-06T06:09:54.904Z,78.75
2022-10-06T06:10:54.932Z,79.33
2022-10-06T06:11:54.856Z,77.58
2022-10-06T06:12:54.889Z,77.78
2022-10-06T06:13:54.839Z,78.61
2022-10-06T06:14:54.853Z,79.33
2022-10-06T06:15:54.830Z,78.92
2022-10-06T06:16:54.919Z,79.05
2022-10-06T06:17:54.794Z,78.54
2022-10-06T06:18:54.783Z,77.37
2022-10-06T06:19:54.772Z,77.78
2022-10-06T06:20:54.764Z,78.09
2022-10-06T06:21:54.769Z,78.20
2022-10-06T06:22:54.794Z,77.58
2022-10-06T06:23:54.733Z,78.78
2022-10-06T06:24:54.820Z,78.92
2022-10-06T06:25:58.739Z,78.20
2022-10-06T06:26:55.742Z,78.71
2022-10-06T06:27:54.685Z,78.71
2022-10-06T06:28:54.742Z,79.74
2022-10-06T06:29:54.665Z,77.89
2022-10-06T06:30:54.718Z,78.71
2022-10-06T06:31:54.640Z,77.65
2022-10-06T06:32:54.641Z,77.65
2022-10-06T06:33:54.629Z,77.55
2022-10-06T06:34:54.759Z,77.65
2022-10-06T06:35:54.607Z,78.16
2022-10-06T06:36:54.603Z,78.16
2022-10-06T06:37:54.582Z,77.75
2022-10-06T06:38:54.574Z,77.75
2022-10-06T06:39:54.555Z,75.49
2022-10-06T06:40:54.610Z,74.98
2022-10-06T06:41:54.551Z,74.43
2022-10-06T06:42:54.536Z,72.96
2022-10-06T06:43:54.512Z,74.60
2022-10-06T06:44:54.510Z,75.56
2022-10-06T06:45:54.571Z,75.45
2022-10-06T06:46:54.528Z,74.70
2022-10-06T06:47:54.468Z,73.36
2022-10-06T06:48:54.469Z,72.96
2022-10-06T06:49:54.447Z,73.36
2022-10-06T06:50:54.436Z,73.23
2022-10-06T06:51:54.439Z,71.39
2022-10-06T06:52:54.486Z,69.65
2022-10-06T06:53:54.409Z,68.74
2022-10-06T06:54:54.400Z,68.30
2022-10-06T06:55:54.389Z,67.72
2022-10-06T06:56:54.370Z,67.99
2022-10-06T06:57:54.367Z,66.99
2022-10-06T06:58:54.363Z,65.25
2022-10-06T06:59:54.354Z,65.63
2022-10-06T07:00:54.395Z,63.90
2022-10-06T07:01:54.381Z,63.83
2022-10-06T07:02:54.386Z,64.14
2022-10-06T07:03:58.629Z,62.88
2022-10-06T07:04:54.297Z,62.55
2022-10-06T07:05:54.291Z,60.72
2022-10-06T07:06:54.258Z,60.24
2022-10-06T07:07:54.254Z,60.11
2022-10-06T07:08:54.243Z,61.30
2022-10-06T07:09:54.232Z,60.05
2022-10-06T07:10:54.236Z,59.84
2022-10-06T07:11:54.234Z,60.33
2022-10-06T07:12:54.196Z,59.16
2022-10-06T07:13:54.186Z,60.30
2022-10-06T07:14:54.173Z,63.45
2022-10-06T07:15:54.216Z,62.30
2022-10-06T07:16:54.211Z,60.27
2022-10-06T07:17:54.159Z,59.77
2022-10-06T07:18:54.154Z,61.79
2022-10-06T07:19:54.121Z,61.79
2022-10-06T07:20:54.116Z,62.30
2022-10-06T07:21:54.114Z,61.08
2022-10-06T07:22:54.106Z,60.88
2022-10-06T07:23:54.077Z,62.59
2022-10-06T07:24:54.124Z,62.35
2022-10-06T07:25:54.053Z,63.97
2022-10-06T07:26:54.040Z,62.71
2022-10-06T07:27:54.112Z,64.31
2022-10-06T07:28:54.021Z,64.89
2022-10-06T07:29:54.419Z,62.29
2022-10-06T07:30:54.000Z,62.56
2022-10-06T07:31:54.055Z,60.05
2022-10-06T07:32:53.988Z,62.02
2022-10-06T07:33:53.966Z,61.44
2022-10-06T07:34:54.313Z,60.15
2022-10-06T07:35:53.947Z,60.79
2022-10-06T07:36:53.938Z,62.52
2022-10-06T07:37:53.953Z,62.21
2022-10-06T07:38:53.913Z,62.53
2022-10-06T07:39:53.911Z,61.01
2022-10-06T07:41:14.592Z,62.56
2022-10-06T07:41:54.880Z,61.62
2022-10-06T07:42:53.873Z,60.91
2022-10-06T07:43:53.934Z,62.63
2022-10-06T07:44:54.278Z,63.21
2022-10-06T07:45:53.913Z,62.30
2022-10-06T07:46:53.824Z,59.66
2022-10-06T07:47:53.816Z,59.63
2022-10-06T07:48:53.805Z,63.49
2022-10-06T07:49:53.804Z,64.17
2022-10-06T07:50:53.809Z,62.31
2022-10-06T07:51:53.776Z,62.82
2022-10-06T07:52:53.781Z,62.38
2022-10-06T07:53:53.751Z,59.78
2022-10-06T07:54:54.071Z,59.55
2022-10-06T07:55:53.729Z,60.69
2022-10-06T07:56:53.723Z,60.79
2022-10-06T07:57:53.708Z,63.70
2022-10-06T07:58:53.707Z,61.33
2022-10-06T07:59:53.685Z,63.76
2022-10-06T08:00:53.675Z,61.25
2022-10-06T08:01:53.743Z,63.35
2022-10-06T08:02:53.722Z,61.63
2022-10-06T08:03:53.720Z,62.14
2022-10-06T08:04:53.911Z,62.21
2022-10-06T08:05:53.619Z,59.68
2022-10-06T08:06:53.635Z,61.33
2022-10-06T08:07:53.610Z,62.59
2022-10-06T08:08:53.741Z,62.18
2022-10-06T08:09:53.587Z,62.33
2022-10-06T08:10:53.567Z,61.99
2022-10-06T08:11:53.558Z,61.11
2022-10-06T08:12:53.562Z,63.44
2022-10-06T08:13:53.533Z,61.69
2022-10-06T08:14:53.780Z,58.89
2022-10-06T08:15:53.619Z,60.86
2022-10-06T08:16:53.502Z,62.82
2022-10-06T08:17:53.490Z,63.32
2022-10-06T08:18:53.587Z,61.47
2022-10-06T08:19:53.472Z,60.82
2022-10-06T08:20:53.554Z,63.20
2022-10-06T08:21:53.478Z,61.24
2022-10-06T08:22:53.461Z,60.94
2022-10-06T08:23:53.424Z,60.08
2022-10-06T08:25:05.298Z,59.30
2022-10-06T08:25:54.411Z,60.82
2022-10-06T08:26:53.390Z,60.49
2022-10-06T08:27:53.771Z,61.30
2022-10-06T08:28:53.374Z,60.42
2022-10-06T08:29:53.469Z,59.58
2022-10-06T08:30:53.345Z,59.65
2022-10-06T08:31:53.410Z,58.64
2022-10-06T08:32:53.324Z,57.60
2022-10-06T08:33:53.320Z,59.42
2022-10-06T08:34:53.614Z,58.45
2022-10-06T08:35:53.309Z,60.38
2022-10-06T08:37:15.809Z,58.11
2022-10-06T08:37:54.269Z,60.84
2022-10-06T08:38:53.293Z,60.46
2022-10-06T08:39:53.320Z,60.61
2022-10-06T08:40:53.244Z,59.90
2022-10-06T08:41:53.235Z,62.84
2022-10-06T08:42:53.217Z,60.13
2022-10-06T08:43:53.265Z,60.57
2022-10-06T08:44:53.487Z,60.06
2022-10-06T08:46:53.174Z,60.78
2022-10-06T08:47:53.160Z,61.13
2022-10-06T08:48:53.152Z,61.49
2022-10-06T08:49:55.089Z,62.12
2022-10-06T08:50:53.127Z,62.19
2022-10-06T08:51:53.123Z,60.14
2022-10-06T08:52:53.110Z,57.44
2022-10-06T08:53:53.097Z,58.38
2022-10-06T08:54:53.117Z,59.32
2022-10-06T08:55:53.083Z,60.74
2022-10-06T08:56:53.163Z,58.92
2022-10-06T08:57:53.065Z,60.48
2022-10-06T08:58:53.044Z,58.12
2022-10-06T08:59:53.575Z,57.72
2022-10-06T09:00:53.116Z,54.61
2022-10-06T09:01:53.143Z,56.43
2022-10-06T09:02:53.008Z,57.07
2022-10-06T09:03:53.041Z,55.52
2022-10-06T09:04:52.973Z,56.53
2022-10-06T09:05:52.973Z,56.46
2022-10-06T09:06:52.954Z,57.37
2022-10-06T09:07:52.945Z,57.47
2022-10-06T09:08:52.947Z,57.87
2022-10-06T09:09:53.147Z,60.17
2022-10-06T09:10:52.950Z,60.55
2022-10-06T09:11:52.897Z,57.01
2022-10-06T09:12:52.891Z,58.15
2022-10-06T09:13:52.880Z,60.52
2022-10-06T09:14:52.866Z,59.23
2022-10-06T09:15:52.998Z,59.64
2022-10-06T09:16:52.844Z,60.75
2022-10-06T09:17:52.843Z,59.41
2022-10-06T09:19:09.404Z,57.78
2022-10-06T09:19:54.258Z,59.34
2022-10-06T09:20:52.800Z,59.85
2022-10-06T09:21:52.827Z,62.35
2022-10-06T09:22:52.794Z,58.92
2022-10-06T09:23:52.773Z,60.06
2022-10-06T09:24:52.754Z,58.45
2022-10-06T09:25:52.743Z,60.42
2022-10-06T09:26:52.754Z,60.02
2022-10-06T09:27:52.721Z,55.54
2022-10-06T09:28:52.737Z,57.76
2022-10-06T09:29:53.236Z,56.15
2022-10-06T09:30:55.349Z,56.98
2022-10-06T09:31:52.705Z,56.23
2022-10-06T09:32:52.671Z,56.13
2022-10-06T09:33:52.705Z,57.57
2022-10-06T09:34:52.731Z,58.28
2022-10-06T09:35:52.632Z,59.09
2022-10-06T09:36:52.627Z,58.76
2022-10-06T09:37:52.612Z,60.81
2022-10-06T09:38:52.599Z,62.14
2022-10-06T09:39:52.610Z,56.93
2022-10-06T09:40:52.652Z,56.63
2022-10-06T09:41:52.571Z,58.52
2022-10-06T09:42:52.583Z,57.71
2022-10-06T09:43:52.587Z,56.05
2022-10-06T09:44:52.548Z,57.82
2022-10-06T09:45:52.526Z,60.22
2022-10-06T09:46:52.524Z,56.02
2022-10-06T09:47:52.507Z,55.55
2022-10-06T09:48:52.497Z,59.36
2022-10-06T09:49:52.556Z,57.44
2022-10-06T09:50:52.470Z,56.81
2022-10-06T09:51:52.471Z,59.44
2022-10-06T09:52:52.459Z,55.16
2022-10-06T09:53:52.440Z,57.09
2022-10-06T09:54:52.438Z,57.39
2022-10-06T09:55:52.419Z,56.10
2022-10-06T09:56:52.412Z,56.81
2022-10-06T09:57:52.396Z,58.54
2022-10-06T09:58:52.455Z,54.23
2022-10-06T09:59:52.372Z,56.90
2022-10-06T10:00:52.421Z,54.86
2022-10-06T10:01:52.356Z,55.84
2022-10-06T10:02:52.387Z,54.79
2022-10-06T10:04:19.409Z,53.72
2022-10-06T10:04:53.340Z,56.25
2022-10-06T10:05:52.312Z,56.45
2022-10-06T10:06:52.314Z,57.06
2022-10-06T10:07:52.289Z,57.64
2022-10-06T10:08:52.282Z,56.20
2022-10-06T10:09:52.266Z,57.16
2022-10-06T10:10:52.309Z,57.23
2022-10-06T10:11:52.255Z,58.34
2022-10-06T10:12:52.235Z,56.10
2022-10-06T10:13:52.222Z,54.91
2022-10-06T10:14:52.241Z,59.02
2022-10-06T10:15:52.292Z,58.41
2022-10-06T10:16:53.340Z,55.66
2022-10-06T10:17:52.197Z,57.00
2022-10-06T10:18:52.169Z,56.52
2022-10-06T10:19:52.158Z,54.21
2022-10-06T10:20:52.152Z,58.34
2022-10-06T10:21:52.138Z,61.79
2022-10-06T10:22:52.132Z,57.63
2022-10-06T10:23:52.162Z,56.92
2022-10-06T10:24:52.110Z,57.93
2022-10-06T10:25:52.098Z,56.80
2022-10-06T10:26:52.083Z,57.70
2022-10-06T10:27:52.179Z,57.78
2022-10-06T10:28:52.136Z,55.79
2022-10-06T10:29:52.057Z,56.47
2022-10-06T10:30:52.067Z,58.62
2022-10-06T10:31:52.070Z,59.30
2022-10-06T10:32:52.025Z,56.76
2022-10-06T10:34:05.081Z,54.55
2022-10-06T10:34:53.004Z,56.62
2022-10-06T10:35:51.986Z,56.35
2022-10-06T10:36:51.977Z,60.35
2022-10-06T10:37:51.961Z,57.93
2022-10-06T10:38:51.966Z,57.86
2022-10-06T10:39:51.953Z,57.96
2022-10-06T10:40:51.940Z,57.45
2022-10-06T10:41:51.923Z,57.96
2022-10-06T10:42:51.909Z,58.26
2022-10-06T10:43:51.894Z,58.80
2022-10-06T10:44:51.903Z,57.78
2022-10-06T10:45:51.883Z,59.67
2022-10-06T10:46:51.919Z,59.22
2022-10-06T10:47:51.852Z,58.61
2022-10-06T10:48:51.842Z,57.45
2022-10-06T10:49:51.829Z,56.51
2022-10-06T10:50:51.838Z,56.44
2022-10-06T10:51:51.810Z,56.62
2022-10-06T10:52:51.861Z,51.79
2022-10-06T10:53:51.802Z,53.72
2022-10-06T10:54:51.776Z,56.69
2022-10-06T10:55:51.762Z,55.76
2022-10-06T10:56:51.762Z,55.93
2022-10-06T10:57:51.743Z,55.51
2022-10-06T10:58:51.734Z,55.10
2022-10-06T10:59:51.719Z,52.47
2022-10-06T11:00:51.879Z,56.59
2022-10-06T11:01:51.774Z,52.64
2022-10-06T11:02:51.724Z,55.58
2022-10-06T11:03:51.677Z,56.16
2022-10-06T11:04:51.684Z,59.59
2022-10-06T11:05:51.655Z,58.83
2022-10-06T11:06:51.651Z,57.32
2022-10-06T11:07:51.627Z,56.24
2022-10-06T11:08:51.619Z,56.19
2022-10-06T11:09:51.610Z,58.24
2022-10-06T11:10:51.705Z,56.01
2022-10-06T11:11:52.509Z,53.32
2022-10-06T11:12:51.599Z,56.66
2022-10-06T11:13:51.566Z,57.21
2022-10-06T11:14:51.610Z,54.58
2022-10-06T11:15:51.641Z,52.29
2022-10-06T11:16:51.593Z,55.08
2022-10-06T11:17:51.523Z,56.21
2022-10-06T11:18:51.550Z,55.79
2022-10-06T11:19:51.503Z,54.60
2022-10-06T11:20:51.490Z,54.60
2022-10-06T11:21:51.478Z,54.53
2022-10-06T11:22:51.572Z,55.89
2022-10-06T11:23:51.460Z,57.43
2022-10-06T11:24:51.501Z,57.60
2022-10-06T11:25:51.438Z,57.48
2022-10-06T11:26:51.428Z,60.67
2022-10-06T11:27:51.416Z,56.62
2022-10-06T11:28:51.457Z,59.78
2022-10-06T11:29:51.398Z,56.84
2022-10-06T11:30:51.401Z,57.37
2022-10-06T11:31:51.492Z,57.24
2022-10-06T11:32:51.361Z,54.83
2022-10-06T11:33:51.353Z,54.33
2022-10-06T11:34:51.367Z,56.34
2022-10-06T11:35:51.328Z,54.43
2022-10-06T11:36:51.326Z,57.68
2022-10-06T11:37:51.306Z,54.35
2022-10-06T11:38:51.311Z,56.79
2022-10-06T11:39:51.284Z,57.54
2022-10-06T11:40:51.332Z,53.52
2022-10-06T11:41:51.264Z,54.83
2022-10-06T11:42:51.275Z,54.85
2022-10-06T11:43:51.241Z,54.50
2022-10-06T11:44:51.231Z,57.72
2022-10-06T11:45:51.256Z,52.89
2022-10-06T11:46:51.225Z,57.09
2022-10-06T11:47:51.199Z,56.99
2022-10-06T11:48:51.187Z,56.46
2022-10-06T11:49:51.182Z,56.99
2022-10-06T11:50:51.200Z,57.17
2022-10-06T11:51:53.679Z,56.06
2022-10-06T11:52:52.152Z,56.16
2022-10-06T11:53:51.136Z,56.06
2022-10-06T11:54:51.133Z,56.76
2022-10-06T11:55:51.112Z,56.84
2022-10-06T11:56:51.101Z,57.95
2022-10-06T11:57:51.118Z,57.12
2022-10-06T11:58:51.100Z,56.95
2022-10-06T11:59:51.074Z,58.05
2022-10-06T12:00:51.067Z,57.60
2022-10-06T12:01:51.138Z,58.31
2022-10-06T12:02:51.162Z,58.21
2022-10-06T12:03:51.039Z,58.71
2022-10-06T12:04:51.045Z,61.85
2022-10-06T12:05:58.164Z,59.38
2022-10-06T12:06:52.020Z,58.12
2022-10-06T12:07:50.981Z,57.50
2022-10-06T12:08:51.020Z,56.51
2022-10-06T12:09:52.702Z,56.90
2022-10-06T12:10:50.984Z,57.72
2022-10-06T12:11:50.998Z,57.92
2022-10-06T12:13:06.318Z,57.28
2022-10-06T12:14:44.626Z,56.77
2022-10-06T12:17:06.017Z,59.42
2022-10-06T12:17:51.878Z,59.28
2022-10-06T12:18:50.861Z,58.58
2022-10-06T12:19:50.850Z,58.21
2022-10-06T12:20:50.852Z,57.83
2022-10-06T12:21:50.832Z,58.64
2022-10-06T12:22:50.965Z,59.72
2022-10-06T12:23:50.816Z,59.39
2022-10-06T12:24:50.802Z,58.31
2022-10-06T12:25:50.789Z,58.23
2022-10-06T12:26:50.776Z,58.98
2022-10-06T12:27:50.772Z,56.74
2022-10-06T12:28:50.820Z,57.75
2022-10-06T12:29:50.957Z,58.53
2022-10-06T12:30:50.811Z,55.79
2022-10-06T12:31:50.732Z,55.81
2022-10-06T12:32:50.710Z,53.92
2022-10-06T12:33:50.712Z,56.64
2022-10-06T12:34:50.700Z,54.53
2022-10-06T12:35:50.682Z,56.40
2022-10-06T12:36:50.678Z,57.12
2022-10-06T12:37:54.266Z,58.65
2022-10-06T12:38:50.671Z,57.72
2022-10-06T12:39:50.633Z,57.62
2022-10-06T12:40:50.628Z,57.12
2022-10-06T12:41:50.630Z,57.32
2022-10-06T12:42:50.612Z,56.09
2022-10-06T12:43:50.594Z,56.66
2022-10-06T12:44:50.586Z,56.46
2022-10-06T12:45:50.670Z,56.09
2022-10-06T12:46:50.617Z,56.09
2022-10-06T12:47:50.569Z,55.76
2022-10-06T12:48:50.541Z,57.37
2022-10-06T12:49:50.543Z,55.66
2022-10-06T12:50:50.519Z,55.88
2022-10-06T12:51:52.391Z,55.68
2022-10-06T12:52:50.619Z,55.91
2022-10-06T12:53:50.485Z,56.64
2022-10-06T12:54:50.503Z,58.02
2022-10-06T12:55:50.463Z,57.62